• Join FlightAware (Why Join?)
  • Login
  • US Flag 
10:33AM EDT


 

Airport Tracker/Info


-or-


 

Live Flight TrackerFlight Track Log ✈ ASQ4492 ✈ 11-Apr-2013 ✈ KIAH - KBTR

Flight Track Log - Related Links

Times and Time Zones

All times are in EDT time to prevent confusion due to time zone crossing. See the ASQ4492 flight status page for this flight to view local times or setup timezone preferences in your user account.

Time Position Orientation Groundspeed Altitude Reporting Facility
EDT Latitude Longitude Course Direction KTS MPH feet Rate Location/Type
10:28PM 29.9833 -94.8326 90° East  Level FlightAware Approximate
10:29PM 29.9834 -94.7074 90° East  Level FlightAware Approximate
10:30PM 29.9833 -94.5822 90° East  Level FlightAware Approximate
10:31PM 29.9834 -94.4570 90° East  Level FlightAware Approximate
10:32PM 29.9833 -94.3318 90° East  Level FlightAware Approximate
10:33PM 30.0016 -94.2091 77° East  Level FlightAware Approximate
10:34PM 30.0203 -94.0860 85° East  Level FlightAware Approximate
10:35PM 30.0299 -93.9613 85° East  Level FlightAware Approximate
10:36PM 30.0458 -93.8378 77° East  Level FlightAware Approximate
10:37PM 30.0622 -93.7141 82° East  Level FlightAware Approximate
10:38PM 30.0768 -93.5899 82° East  Level FlightAware Approximate
10:39PM 30.0913 -93.4657 82° East  Level FlightAware Approximate
10:40PM 30.1057 -93.3415 82° East  Level FlightAware Approximate
10:41PM 30.1200 -93.2172 82° East  Level FlightAware Approximate
10:42PM 30.1346 -93.0930 78° East  Level FlightAware Approximate
10:43PM 30.1563 -92.9702 78° East  Level FlightAware Approximate
10:44PM 30.1780 -92.8473 78° East  Level FlightAware Approximate
10:45PM 30.2044 -92.7257 75° East  Level FlightAware Approximate
10:46PM 30.2323 -92.6044 75° East  Level FlightAware Approximate
10:47PM 30.2532 -92.4812 79° East  Level FlightAware Approximate
10:48PM 30.2747 -92.3582 77° East  Level FlightAware Approximate
10:49PM 30.2981 -92.2356 77° East  Level FlightAware Approximate
10:50PM 30.3214 -92.1130 78° East  Level FlightAware Approximate
10:51PM 30.3413 -91.9898 78° East  Level FlightAware Approximate
10:52PM 30.3636 -91.8668 78° East  Level FlightAware Approximate
10:53PM 30.3928 -91.7458 74° East  Level FlightAware Approximate
10:54PM 30.4167 -91.6240 90° East  Level FlightAware Approximate
10:55PM 30.4348 -91.5005 78° East  Level FlightAware Approximate
10:56PM 30.4597 -91.3781 74° East  Level FlightAware Approximate
10:57PM 30.4868 -91.2597 60° Northeast  Level FlightAware Approximate
10:58PM 30.5156 -91.1397 79° East  Level FlightAware Approximate
10:59PM 30.5167 -91.1333 79° East  Level FlightAware Approximate
11:00PM 30.5329 -91.1499 79° East  Level Estimated
11:01PM 30.5329 -91.1499 79° East  Level Estimated
11:02PM 30.5329 -91.1499 79° East  Level Estimated